Time;durP1;ratioP1;P1;durP2;ratioP2;P2;SDS_P1;SDS_P2;PMS_P1;PMS_P2;Temp;Humidity;BMP_temperature;BMP_pressure;BME280_temperature;BME280_humidity;BME280_pressure;Samples;Min_cycle;Max_cycle;Signal;HPM_P1;HPM_P2
2023/01/02 00:00:41;;;;;;;15.38;5.15;;;;;;;;;;7387143;19;20098;-69
2023/01/02 00:03:07;;;;;;;13.43;5.95;;;;;;;;;;7387535;19;20014;-68
2023/01/02 00:05:34;;;;;;;13.70;5.65;;;;;;;;;;7387402;19;19994;-68
2023/01/02 00:07:59;;;;;;;11.48;5.47;;;;;;;;;;7392472;19;20041;-67
2023/01/02 00:10:25;;;;;;;13.73;5.75;;;;;;;;;;7389077;19;20002;-68
2023/01/02 00:12:50;;;;;;;12.07;5.63;;;;;;;;;;7388132;19;19998;-68
2023/01/02 00:15:15;;;;;;;12.50;5.25;;;;;;;;;;7386497;19;19999;-68
2023/01/02 00:17:41;;;;;;;13.50;5.80;;;;;;;;;;7387432;19;20456;-68
2023/01/02 00:20:07;;;;;;;11.15;5.10;;;;;;;;;;7388254;19;19994;-68
2023/01/02 00:22:32;;;;;;;14.35;5.28;;;;;;;;;;7390244;19;20005;-68
2023/01/02 00:24:58;;;;;;;12.52;5.85;;;;;;;;;;7394420;19;20002;-68
2023/01/02 00:27:23;;;;;;;11.63;4.88;;;;;;;;;;7396823;19;19995;-70
2023/01/02 00:29:48;;;;;;;11.60;5.13;;;;;;;;;;7394603;19;20380;-67
2023/01/02 00:32:14;;;;;;;13.88;5.10;;;;;;;;;;7395964;19;20328;-69
2023/01/02 00:34:39;;;;;;;8.98;4.93;;;;;;;;;;7392852;19;20043;-67
2023/01/02 00:37:05;;;;;;;9.00;4.70;;;;;;;;;;7394647;19;19999;-68
2023/01/02 00:39:30;;;;;;;13.70;5.60;;;;;;;;;;7395786;19;20019;-68
2023/01/02 00:41:55;;;;;;;11.95;5.57;;;;;;;;;;7395714;19;19991;-68
2023/01/02 00:44:20;;;;;;;18.17;5.35;;;;;;;;;;7391428;19;20076;-67
2023/01/02 00:46:46;;;;;;;15.70;6.50;;;;;;;;;;7395918;19;20040;-68
2023/01/02 00:49:11;;;;;;;13.27;5.50;;;;;;;;;;7395401;19;20007;-67
2023/01/02 00:51:36;;;;;;;23.75;6.60;;;;;;;;;;7395666;19;20014;-68
2023/01/02 00:54:02;;;;;;;15.30;5.60;;;;;;;;;;7393260;19;20350;-68
2023/01/02 00:56:27;;;;;;;12.75;5.65;;;;;;;;;;7395318;19;20035;-67
2023/01/02 00:58:52;;;;;;;13.80;5.53;;;;;;;;;;7395542;19;20039;-69
2023/01/02 01:01:18;;;;;;;16.00;5.82;;;;;;;;;;7392878;19;20426;-68
2023/01/02 01:03:43;;;;;;;14.32;5.05;;;;;;;;;;7393165;19;20429;-68
2023/01/02 01:06:09;;;;;;;14.90;5.15;;;;;;;;;;7394900;19;20116;-68
2023/01/02 01:08:36;;;;;;;14.27;5.75;;;;;;;;;;7394723;19;19999;-69
2023/01/02 01:11:13;;;;;;;12.63;5.55;;;;;;;;;;7399482;19;19999;-68
2023/01/02 01:13:39;;;;;;;9.00;4.97;;;;;;;;;;7393579;19;20011;-67
2023/01/02 01:16:07;;;;;;;12.70;5.47;;;;;;;;;;7394643;19;20326;-69
2023/01/02 01:18:32;;;;;;;11.93;5.78;;;;;;;;;;7394309;19;20026;-68
2023/01/02 01:20:58;;;;;;;9.85;5.28;;;;;;;;;;7393167;19;19999;-68
2023/01/02 01:23:23;;;;;;;13.23;5.53;;;;;;;;;;7393001;19;20492;-67
2023/01/02 01:25:49;;;;;;;15.43;6.30;;;;;;;;;;7393188;19;20003;-68
2023/01/02 01:28:14;;;;;;;10.63;5.35;;;;;;;;;;7394308;19;20328;-67
2023/01/02 01:30:39;;;;;;;14.38;5.40;;;;;;;;;;7394353;19;20026;-68
2023/01/02 01:33:05;;;;;;;15.05;5.20;;;;;;;;;;7390558;19;19995;-68
2023/01/02 01:35:32;;;;;;;11.30;5.07;;;;;;;;;;7394530;19;20325;-68
2023/01/02 01:37:58;;;;;;;10.80;4.85;;;;;;;;;;7398509;19;19998;-68
2023/01/02 01:40:23;;;;;;;13.98;5.03;;;;;;;;;;7392871;19;19998;-68
2023/01/02 01:42:49;;;;;;;10.93;5.25;;;;;;;;;;7392430;19;20087;-67
2023/01/02 01:45:15;;;;;;;17.17;5.07;;;;;;;;;;7392209;19;20561;-68
2023/01/02 01:47:52;;;;;;;13.48;5.45;;;;;;;;;;7393735;19;20032;-69
2023/01/02 01:50:28;;;;;;;10.27;4.30;;;;;;;;;;7392076;19;20010;-68
2023/01/02 01:52:59;;;;;;;8.57;4.72;;;;;;;;;;7392141;19;20006;-67
2023/01/02 01:55:30;;;;;;;15.55;4.60;;;;;;;;;;7391992;19;20005;-67
2023/01/02 01:58:05;;;;;;;9.63;4.72;;;;;;;;;;7393343;19;20488;-68
2023/01/02 02:00:31;;;;;;;13.35;4.93;;;;;;;;;;7392330;19;20016;-68
2023/01/02 02:02:59;;;;;;;14.80;5.30;;;;;;;;;;7391466;19;20003;-68
2023/01/02 02:05:28;;;;;;;11.55;4.88;;;;;;;;;;7391293;19;20408;-68
2023/01/02 02:08:21;;;;;;;13.75;5.28;;;;;;;;;;7393377;19;20488;-68
2023/01/02 02:10:47;;;;;;;12.48;5.45;;;;;;;;;;7394750;19;20003;-68
2023/01/02 02:13:13;;;;;;;11.80;5.53;;;;;;;;;;7389591;19;20028;-68
2023/01/02 02:15:56;;;;;;;11.30;5.13;;;;;;;;;;7390781;19;20007;-68
2023/01/02 02:18:28;;;;;;;12.02;4.70;;;;;;;;;;7391388;19;20022;-68
2023/01/02 02:21:05;;;;;;;14.23;4.90;;;;;;;;;;7391420;19;19998;-69
2023/01/02 02:23:37;;;;;;;13.20;4.95;;;;;;;;;;7391000;19;20006;-69
2023/01/02 02:26:46;;;;;;;10.82;4.53;;;;;;;;;;7393227;19;20003;-68
2023/01/02 02:29:46;;;;;;;9.40;4.75;;;;;;;;;;7388715;19;19999;-68
2023/01/02 02:32:36;;;;;;;13.95;5.00;;;;;;;;;;7388772;19;19998;-68
2023/01/02 02:35:09;;;;;;;20.65;4.85;;;;;;;;;;7390421;19;20024;-68
2023/01/02 02:38:30;;;;;;;10.88;4.18;;;;;;;;;;7392135;19;20002;-68
2023/01/02 02:41:11;;;;;;;19.50;4.43;;;;;;;;;;7390073;19;19994;-68
2023/01/02 02:43:56;;;;;;;11.18;4.90;;;;;;;;;;7390264;19;20006;-68
2023/01/02 02:47:00;;;;;;;10.50;4.15;;;;;;;;;;7389883;19;20006;-68
2023/01/02 02:49:58;;;;;;;12.23;4.72;;;;;;;;;;7390495;19;20521;-68
2023/01/02 02:52:38;;;;;;;10.68;4.60;;;;;;;;;;7391139;19;20011;-68
2023/01/02 02:55:22;;;;;;;9.88;4.43;;;;;;;;;;7390277;19;20102;-68
2023/01/02 02:57:49;;;;;;;8.63;4.25;;;;;;;;;;7391451;19;20026;-68
2023/01/02 03:00:18;;;;;;;14.30;4.22;;;;;;;;;;7388850;19;20460;-68
2023/01/02 03:02:44;;;;;;;16.67;4.35;;;;;;;;;;7390226;19;20352;-68
2023/01/02 03:05:14;;;;;;;10.50;4.72;;;;;;;;;;7389676;19;20002;-68
2023/01/02 03:07:53;;;;;;;11.00;4.90;;;;;;;;;;7391021;19;20010;-68
2023/01/02 03:10:37;;;;;;;10.85;4.28;;;;;;;;;;7390785;19;20006;-68
2023/01/02 03:13:09;;;;;;;15.20;4.47;;;;;;;;;;7387706;19;20002;-68
2023/01/02 03:15:58;;;;;;;11.27;4.78;;;;;;;;;;7387248;19;20449;-68
2023/01/02 03:18:37;;;;;;;10.45;4.35;;;;;;;;;;7390655;19;19999;-68
2023/01/02 03:21:06;;;;;;;14.93;5.10;;;;;;;;;;7387853;19;20491;-68
2023/01/02 03:23:41;;;;;;;10.88;4.28;;;;;;;;;;7388535;19;19994;-68
2023/01/02 03:26:06;;;;;;;10.32;5.25;;;;;;;;;;7390243;19;20006;-68
2023/01/02 03:28:33;;;;;;;9.73;4.30;;;;;;;;;;7391032;19;19994;-68
2023/01/02 03:31:01;;;;;;;13.75;4.93;;;;;;;;;;7389990;19;20007;-70
2023/01/02 03:33:31;;;;;;;10.65;4.50;;;;;;;;;;7388265;19;20009;-68
2023/01/02 03:36:01;;;;;;;15.30;4.45;;;;;;;;;;7394603;19;20002;-68
2023/01/02 03:38:40;;;;;;;13.95;4.72;;;;;;;;;;7390152;19;20423;-69
2023/01/02 03:41:10;;;;;;;11.10;4.10;;;;;;;;;;7393108;19;20006;-69
2023/01/02 03:43:38;;;;;;;8.93;3.90;;;;;;;;;;7388236;19;20063;-69
2023/01/02 03:46:08;;;;;;;8.95;4.53;;;;;;;;;;7387735;19;19999;-68
2023/01/02 03:48:44;;;;;;;10.00;3.95;;;;;;;;;;7390309;19;19998;-68
2023/01/02 03:51:10;;;;;;;8.20;4.05;;;;;;;;;;7384882;19;20006;-69
2023/01/02 03:53:38;;;;;;;13.80;4.95;;;;;;;;;;7384641;19;20023;-68
2023/01/02 03:56:30;;;;;;;11.60;4.97;;;;;;;;;;7389510;19;20005;-69
2023/01/02 03:59:17;;;;;;;11.70;4.80;;;;;;;;;;7396670;19;20348;-68
2023/01/02 04:01:56;;;;;;;15.35;5.32;;;;;;;;;;7394616;19;20069;-68
2023/01/02 04:04:28;;;;;;;16.38;6.82;;;;;;;;;;7393444;19;20002;-69
2023/01/02 04:06:58;;;;;;;15.02;4.85;;;;;;;;;;7397043;19;19999;-68
2023/01/02 04:09:27;;;;;;;15.55;4.60;;;;;;;;;;7396978;19;20065;-68
2023/01/02 04:11:57;;;;;;;10.02;3.80;;;;;;;;;;7395518;19;19998;-68
2023/01/02 04:14:33;;;;;;;12.27;4.50;;;;;;;;;;7394050;19;20002;-69
2023/01/02 04:17:01;;;;;;;13.30;4.45;;;;;;;;;;7396709;19;20063;-68
2023/01/02 04:19:33;;;;;;;17.23;4.38;;;;;;;;;;7395242;19;20087;-69
2023/01/02 04:22:03;;;;;;;11.05;4.40;;;;;;;;;;7401426;19;19991;-69
2023/01/02 04:24:37;;;;;;;12.35;4.53;;;;;;;;;;7393740;19;20301;-69
2023/01/02 04:27:07;;;;;;;10.52;4.38;;;;;;;;;;7396529;19;19998;-69
2023/01/02 04:29:32;;;;;;;16.48;4.95;;;;;;;;;;7395973;19;20464;-69
2023/01/02 04:32:08;;;;;;;14.30;4.60;;;;;;;;;;7396033;19;19998;-69
2023/01/02 04:34:36;;;;;;;13.27;4.70;;;;;;;;;;7393118;19;19994;-69
2023/01/02 04:37:01;;;;;;;10.27;4.47;;;;;;;;;;7396038;19;20436;-69
2023/01/02 04:39:28;;;;;;;14.45;4.85;;;;;;;;;;7395734;19;20054;-68
2023/01/02 04:41:54;;;;;;;12.70;4.28;;;;;;;;;;7392864;19;19998;-69
2023/01/02 04:44:19;;;;;;;12.98;4.60;;;;;;;;;;7392926;19;19995;-68
2023/01/02 04:46:44;;;;;;;14.10;5.40;;;;;;;;;;7395342;19;20019;-69
2023/01/02 04:49:10;;;;;;;11.88;5.07;;;;;;;;;;7395674;19;20080;-68
2023/01/02 04:51:35;;;;;;;9.77;4.68;;;;;;;;;;7395436;19;19995;-68
2023/01/02 04:54:00;;;;;;;15.60;4.80;;;;;;;;;;7393371;19;20002;-68
2023/01/02 04:56:25;;;;;;;19.23;4.60;;;;;;;;;;7395774;19;20105;-69
2023/01/02 04:58:51;;;;;;;10.45;4.15;;;;;;;;;;7395260;19;19995;-68
2023/01/02 05:01:18;;;;;;;8.57;4.57;;;;;;;;;;7391353;19;20010;-68
2023/01/02 05:03:46;;;;;;;14.02;4.45;;;;;;;;;;7393436;19;20006;-68
2023/01/02 05:06:11;;;;;;;11.05;4.95;;;;;;;;;;7395256;19;19990;-68
2023/01/02 05:08:37;;;;;;;9.95;5.22;;;;;;;;;;7396833;19;19995;-68
2023/01/02 05:11:14;;;;;;;17.40;5.25;;;;;;;;;;7394927;19;20372;-68
2023/01/02 05:13:39;;;;;;;10.95;5.32;;;;;;;;;;7393680;19;20357;-69
2023/01/02 05:16:06;;;;;;;13.75;4.40;;;;;;;;;;7394603;19;20062;-68
2023/01/02 05:18:31;;;;;;;14.07;4.95;;;;;;;;;;7394655;19;20452;-68
2023/01/02 05:21:05;;;;;;;17.77;5.60;;;;;;;;;;7392094;19;19995;-68
2023/01/02 05:23:49;;;;;;;12.32;4.82;;;;;;;;;;7393207;19;20336;-69
2023/01/02 05:26:16;;;;;;;10.65;4.53;;;;;;;;;;7394695;19;20002;-68
2023/01/02 05:28:41;;;;;;;10.50;5.13;;;;;;;;;;7394745;19;19998;-69
2023/01/02 05:31:06;;;;;;;11.20;4.80;;;;;;;;;;7393021;19;20033;-68
2023/01/02 05:33:32;;;;;;;11.02;4.88;;;;;;;;;;7395430;19;19995;-68
2023/01/02 05:35:57;;;;;;;8.98;4.55;;;;;;;;;;7394447;19;20666;-68
2023/01/02 05:38:22;;;;;;;13.68;4.53;;;;;;;;;;7394290;19;20022;-68
2023/01/02 05:40:48;;;;;;;10.98;4.65;;;;;;;;;;7392884;19;20006;-68
2023/01/02 05:43:13;;;;;;;10.10;4.72;;;;;;;;;;7392263;19;20001;-69
2023/01/02 05:45:38;;;;;;;11.40;4.63;;;;;;;;;;7391705;19;19998;-69
2023/01/02 05:48:04;;;;;;;14.35;4.82;;;;;;;;;;7394927;19;20361;-68
2023/01/02 05:50:29;;;;;;;13.02;5.13;;;;;;;;;;7393679;19;20037;-68
2023/01/02 05:52:55;;;;;;;10.75;5.65;;;;;;;;;;7391172;19;20109;-67
2023/01/02 05:55:20;;;;;;;13.25;4.72;;;;;;;;;;7391726;19;20002;-69
2023/01/02 05:57:46;;;;;;;12.75;5.25;;;;;;;;;;7393201;19;19995;-68
2023/01/02 06:00:12;;;;;;;10.63;4.47;;;;;;;;;;7392867;19;19995;-68
2023/01/02 06:02:37;;;;;;;11.45;4.68;;;;;;;;;;7391686;19;20074;-69
2023/01/02 06:05:03;;;;;;;12.30;5.32;;;;;;;;;;7391853;19;20385;-68
2023/01/02 06:07:28;;;;;;;16.55;4.95;;;;;;;;;;7393280;19;19994;-68
2023/01/02 06:09:53;;;;;;;11.35;4.43;;;;;;;;;;7391433;19;19998;-68
2023/01/02 06:12:18;;;;;;;9.50;4.05;;;;;;;;;;7393207;19;20066;-68
2023/01/02 06:14:44;;;;;;;9.55;4.40;;;;;;;;;;7390141;19;19995;-69
2023/01/02 06:17:09;;;;;;;10.38;4.15;;;;;;;;;;7397335;19;20017;-69
2023/01/02 06:19:34;;;;;;;13.15;4.32;;;;;;;;;;7390922;19;20055;-69
2023/01/02 06:21:59;;;;;;;7.85;4.00;;;;;;;;;;7390960;19;20325;-69
2023/01/02 06:24:26;;;;;;;12.82;5.30;;;;;;;;;;7390347;19;20457;-69
2023/01/02 06:26:52;;;;;;;11.95;4.68;;;;;;;;;;7390997;19;20072;-69
2023/01/02 06:29:17;;;;;;;10.07;4.22;;;;;;;;;;7392938;19;19995;-69
2023/01/02 06:31:42;;;;;;;13.52;4.53;;;;;;;;;;7392764;19;20006;-69
2023/01/02 06:34:08;;;;;;;10.65;4.35;;;;;;;;;;7390017;19;20078;-69
2023/01/02 06:36:34;;;;;;;11.02;4.30;;;;;;;;;;7392503;19;19999;-69
2023/01/02 06:38:59;;;;;;;13.65;4.50;;;;;;;;;;7392033;19;19990;-69
2023/01/02 06:41:25;;;;;;;8.23;4.93;;;;;;;;;;7390295;19;19999;-69
2023/01/02 06:43:50;;;;;;;10.95;5.20;;;;;;;;;;7389961;19;20002;-69
2023/01/02 06:46:17;;;;;;;13.40;5.32;;;;;;;;;;7390218;19;20069;-69
2023/01/02 06:48:44;;;;;;;11.48;4.63;;;;;;;;;;7390634;19;20003;-69
2023/01/02 06:51:15;;;;;;;11.23;5.30;;;;;;;;;;7391450;19;20074;-69
2023/01/02 06:53:41;;;;;;;;;;;;;;;;;;7390262;19;20005;-69
2023/01/02 06:56:08;;;;;;;11.88;4.65;;;;;;;;;;7391432;19;19926;-69
2023/01/02 06:58:35;;;;;;;12.30;4.18;;;;;;;;;;7391366;19;20005;-69
2023/01/02 07:01:02;;;;;;;13.15;4.43;;;;;;;;;;7390165;19;20293;-69
2023/01/02 07:03:28;;;;;;;10.45;4.93;;;;;;;;;;7391725;19;20415;-69
2023/01/02 07:05:53;;;;;;;13.07;4.93;;;;;;;;;;7391266;19;20038;-68
2023/01/02 07:08:18;;;;;;;12.35;5.32;;;;;;;;;;7389678;19;19994;-68
2023/01/02 07:10:43;;;;;;;14.70;5.25;;;;;;;;;;7389681;19;20002;-68
2023/01/02 07:13:09;;;;;;;11.05;4.90;;;;;;;;;;7390157;19;20463;-68
2023/01/02 07:15:35;;;;;;;14.13;4.25;;;;;;;;;;7389158;19;20013;-68
2023/01/02 07:18:00;;;;;;;13.45;4.85;;;;;;;;;;7391117;19;20496;-69
2023/01/02 07:20:25;;;;;;;10.88;4.30;;;;;;;;;;7390359;19;19998;-68
2023/01/02 07:22:52;;;;;;;13.13;4.60;;;;;;;;;;7389354;19;20014;-68
2023/01/02 07:25:19;;;;;;;10.07;5.05;;;;;;;;;;7388878;19;20028;-68
2023/01/02 07:27:44;;;;;;;14.70;5.35;;;;;;;;;;7390336;19;19999;-68
2023/01/02 07:30:10;;;;;;;10.75;4.85;;;;;;;;;;7390062;19;20481;-69
2023/01/02 07:32:35;;;;;;;12.70;5.15;;;;;;;;;;7387166;19;20341;-69
2023/01/02 07:35:01;;;;;;;13.73;5.05;;;;;;;;;;7393230;19;19999;-69
2023/01/02 07:37:26;;;;;;;12.85;4.43;;;;;;;;;;7389203;19;20006;-69
2023/01/02 07:39:51;;;;;;;10.50;5.22;;;;;;;;;;7389621;19;20485;-68
2023/01/02 07:42:19;;;;;;;13.95;4.70;;;;;;;;;;7388045;19;20429;-69
2023/01/02 07:44:45;;;;;;;11.07;4.63;;;;;;;;;;7388302;19;20006;-69
2023/01/02 07:47:11;;;;;;;10.77;4.47;;;;;;;;;;7388134;19;19991;-69
2023/01/02 07:49:36;;;;;;;12.55;4.28;;;;;;;;;;7390112;19;20100;-69
2023/01/02 07:52:02;;;;;;;10.63;4.07;;;;;;;;;;7389885;19;21164;-68
2023/01/02 07:54:27;;;;;;;9.05;4.10;;;;;;;;;;7389612;19;20007;-69
2023/01/02 07:56:52;;;;;;;10.20;4.22;;;;;;;;;;7391566;19;20381;-69
2023/01/02 07:59:18;;;;;;;11.75;4.97;;;;;;;;;;7391253;19;20468;-70
2023/01/02 08:01:43;;;;;;;13.02;4.50;;;;;;;;;;7389463;19;20005;-70
2023/01/02 08:04:08;;;;;;;13.27;4.63;;;;;;;;;;7389795;19;19999;-70
2023/01/02 08:06:34;;;;;;;9.68;4.15;;;;;;;;;;7391306;19;19998;-69
2023/01/02 08:08:59;;;;;;;14.63;4.35;;;;;;;;;;7391065;19;19991;-70
2023/01/02 08:11:24;;;;;;;12.57;4.00;;;;;;;;;;7392185;19;20116;-69
2023/01/02 08:13:50;;;;;;;8.13;3.95;;;;;;;;;;7389723;19;20060;-69
2023/01/02 08:16:18;;;;;;;11.10;4.93;;;;;;;;;;7389506;19;19995;-69
2023/01/02 08:18:44;;;;;;;15.13;4.93;;;;;;;;;;7390956;19;20324;-69
2023/01/02 08:21:10;;;;;;;14.13;4.35;;;;;;;;;;7388484;19;19995;-69
2023/01/02 08:23:36;;;;;;;13.00;3.70;;;;;;;;;;7389558;19;20018;-69
2023/01/02 08:26:06;;;;;;;7.68;2.65;;;;;;;;;;7389071;19;19998;-69
2023/01/02 08:28:32;;;;;;;6.93;2.15;;;;;;;;;;7390742;19;20002;-68
2023/01/02 08:30:59;;;;;;;8.82;2.80;;;;;;;;;;7390768;19;20050;-69
2023/01/02 08:33:25;;;;;;;12.00;4.03;;;;;;;;;;7389108;19;19991;-70
2023/01/02 08:35:50;;;;;;;13.80;3.85;;;;;;;;;;7389148;19;20001;-68
2023/01/02 08:38:15;;;;;;;13.27;2.30;;;;;;;;;;7390444;19;20046;-69
2023/01/02 08:40:41;;;;;;;9.75;2.58;;;;;;;;;;7389467;19;20355;-69
2023/01/02 08:43:07;;;;;;;8.68;2.63;;;;;;;;;;7390600;19;20346;-71
2023/01/02 08:45:32;;;;;;;12.57;2.30;;;;;;;;;;7393643;19;20370;-70
2023/01/02 08:47:58;;;;;;;9.90;2.40;;;;;;;;;;7395476;19;19995;-69
2023/01/02 08:50:23;;;;;;;11.32;2.45;;;;;;;;;;7397729;19;19991;-69
2023/01/02 08:52:48;;;;;;;6.40;2.25;;;;;;;;;;7395502;19;20042;-70
2023/01/02 08:55:14;;;;;;;8.00;2.17;;;;;;;;;;7395659;19;20023;-70
2023/01/02 08:57:39;;;;;;;12.27;2.58;;;;;;;;;;7398117;19;19986;-69
2023/01/02 09:00:05;;;;;;;12.93;2.28;;;;;;;;;;7399959;19;19995;-69
2023/01/02 09:02:31;;;;;;;13.77;2.30;;;;;;;;;;7398720;19;20005;-69
2023/01/02 09:04:57;;;;;;;7.95;2.35;;;;;;;;;;7394693;19;19999;-68
2023/01/02 09:07:23;;;;;;;11.35;2.25;;;;;;;;;;7396733;19;19998;-70
2023/01/02 09:09:48;;;;;;;9.35;2.40;;;;;;;;;;7395713;19;20020;-68
2023/01/02 09:12:13;;;;;;;8.68;2.42;;;;;;;;;;7398199;19;19995;-69
2023/01/02 09:14:39;;;;;;;9.50;2.33;;;;;;;;;;7393298;19;20440;-68
2023/01/02 09:17:04;;;;;;;6.78;2.42;;;;;;;;;;7396391;19;20453;-68
2023/01/02 09:19:30;;;;;;;12.13;2.83;;;;;;;;;;7396132;19;19994;-68
2023/01/02 09:21:55;;;;;;;14.07;3.03;;;;;;;;;;7392464;19;19999;-70
2023/01/02 09:24:20;;;;;;;10.68;2.47;;;;;;;;;;7393863;19;20124;-69
2023/01/02 09:26:46;;;;;;;8.05;2.17;;;;;;;;;;7396408;19;20008;-69
2023/01/02 09:29:12;;;;;;;9.82;2.97;;;;;;;;;;7395951;19;20005;-70
2023/01/02 09:31:38;;;;;;;9.15;2.30;;;;;;;;;;7395659;19;19999;-69
2023/01/02 09:34:04;;;;;;;7.72;2.17;;;;;;;;;;7393874;19;20346;-69
2023/01/02 09:36:30;;;;;;;8.88;2.10;;;;;;;;;;7395456;19;19991;-70
2023/01/02 09:38:58;;;;;;;10.88;2.20;;;;;;;;;;7395676;19;20058;-70
2023/01/02 09:41:31;;;;;;;10.45;2.67;;;;;;;;;;7393913;19;19994;-71
2023/01/02 09:44:12;;;;;;;7.75;2.22;;;;;;;;;;7393908;19;20003;-70
2023/01/02 09:46:56;;;;;;;6.20;2.00;;;;;;;;;;7394646;19;20002;-69
2023/01/02 09:49:31;;;;;;;13.80;3.85;;;;;;;;;;7395287;19;20007;-69
2023/01/02 09:51:57;;;;;;;14.55;5.43;;;;;;;;;;7395360;19;20019;-70
2023/01/02 09:54:26;;;;;;;9.40;2.95;;;;;;;;;;7392237;19;20002;-70
2023/01/02 09:57:22;;;;;;;12.13;2.28;;;;;;;;;;7394831;19;19994;-70
2023/01/02 10:00:18;;;;;;;9.18;2.30;;;;;;;;;;7394987;19;19994;-69
2023/01/02 10:02:59;;;;;;;7.43;2.53;;;;;;;;;;7396159;19;20070;-70
2023/01/02 10:05:39;;;;;;;12.57;2.67;;;;;;;;;;7393527;19;20002;-70
2023/01/02 10:08:41;;;;;;;8.27;2.42;;;;;;;;;;7394839;19;20361;-69
2023/01/02 10:11:31;;;;;;;15.10;2.30;;;;;;;;;;7398074;19;20416;-69
2023/01/02 10:14:24;;;;;;;7.25;2.08;;;;;;;;;;7392676;19;20463;-70
2023/01/02 10:16:53;;;;;;;14.45;2.25;;;;;;;;;;7391512;19;20504;-69
2023/01/02 10:19:26;;;;;;;8.35;2.08;;;;;;;;;;7389413;19;20114;-70
2023/01/02 10:21:57;;;;;;;9.05;2.58;;;;;;;;;;7390920;19;20006;-65
2023/01/02 10:24:45;;;;;;;13.75;3.08;;;;;;;;;;7391847;19;20484;-64
2023/01/02 10:27:16;;;;;;;14.13;2.90;;;;;;;;;;7391518;19;20082;-70
2023/01/02 10:29:47;;;;;;;13.02;2.92;;;;;;;;;;7394040;19;20096;-71
2023/01/02 10:32:18;;;;;;;12.30;2.60;;;;;;;;;;7393383;19;20007;-70
2023/01/02 10:35:10;;;;;;;12.68;2.72;;;;;;;;;;7391861;19;19998;-72
2023/01/02 10:37:36;;;;;;;6.53;2.20;;;;;;;;;;7382283;19;20006;-71
2023/01/02 10:40:03;;;;;;;12.95;3.05;;;;;;;;;;7390919;19;19994;-70
2023/01/02 10:42:30;;;;;;;6.95;2.28;;;;;;;;;;7389265;19;20003;-70
2023/01/02 10:44:56;;;;;;;6.78;2.40;;;;;;;;;;7390571;19;20002;-74
2023/01/02 10:47:36;;;;;;;10.25;2.70;;;;;;;;;;7390666;19;20354;-73
2023/01/02 10:50:17;;;;;;;10.07;2.78;;;;;;;;;;7392841;19;20525;-72
2023/01/02 10:52:48;;;;;;;9.27;2.78;;;;;;;;;;7389178;19;20002;-73
2023/01/02 10:55:29;;;;;;;9.73;3.42;;;;;;;;;;7388451;19;20341;-73
2023/01/02 10:58:04;;;;;;;8.15;2.80;;;;;;;;;;7392255;19;20508;-71
2023/01/02 11:00:31;;;;;;;10.95;2.88;;;;;;;;;;7391873;19;20353;-70
2023/01/02 11:03:14;;;;;;;11.13;2.60;;;;;;;;;;7390911;19;20481;-72
2023/01/02 11:05:49;;;;;;;10.07;2.45;;;;;;;;;;7387039;19;20479;-72
2023/01/02 11:08:23;;;;;;;8.70;2.35;;;;;;;;;;7387873;19;20002;-73
2023/01/02 11:10:49;;;;;;;10.32;2.42;;;;;;;;;;7391697;19;20003;-72
2023/01/02 11:13:18;;;;;;;8.35;2.75;;;;;;;;;;7391611;19;20068;-73
2023/01/02 11:15:46;;;;;;;14.07;3.25;;;;;;;;;;7386682;19;19998;-72
2023/01/02 11:18:20;;;;;;;9.57;2.42;;;;;;;;;;7391976;19;20034;-73
2023/01/02 11:20:52;;;;;;;8.63;2.50;;;;;;;;;;7387599;19;20005;-72
2023/01/02 11:23:21;;;;;;;9.90;2.47;;;;;;;;;;7388418;19;20007;-73
2023/01/02 11:25:46;;;;;;;10.93;3.67;;;;;;;;;;7385509;19;20002;-71
2023/01/02 11:28:33;;;;;;;7.57;2.40;;;;;;;;;;7390921;19;20069;-71
2023/01/02 11:31:04;;;;;;;6.05;2.40;;;;;;;;;;7387731;19;20007;-72
2023/01/02 11:33:35;;;;;;;6.47;2.67;;;;;;;;;;7389011;19;19997;-73
2023/01/02 11:36:03;;;;;;;8.87;2.20;;;;;;;;;;7388310;19;20091;-73
2023/01/02 11:38:46;;;;;;;10.55;2.55;;;;;;;;;;7389279;19;20259;-72
2023/01/02 11:44:33;;;;;;;10.52;2.75;;;;;;;;;;7384959;19;20459;-73
2023/01/02 11:47:00;;;;;;;13.75;2.60;;;;;;;;;;7387136;19;19995;-71
2023/01/02 11:49:49;;;;;;;5.80;2.33;;;;;;;;;;7385831;19;20006;-71
2023/01/02 11:52:19;;;;;;;5.97;2.40;;;;;;;;;;7384473;19;20324;-70
2023/01/02 11:55:02;;;;;;;6.23;2.70;;;;;;;;;;7381899;19;20466;-71
2023/01/02 11:57:53;;;;;;;10.63;2.75;;;;;;;;;;7384944;19;20619;-71
2023/01/02 12:00:20;;;;;;;6.63;2.70;;;;;;;;;;7384455;19;19994;-71
2023/01/02 12:02:47;;;;;;;9.05;2.60;;;;;;;;;;7384536;19;19994;-71
2023/01/02 12:05:36;;;;;;;9.85;3.85;;;;;;;;;;7382685;19;20480;-71
2023/01/02 12:08:18;;;;;;;10.55;2.75;;;;;;;;;;7387091;19;20380;-71
2023/01/02 12:11:05;;;;;;;9.07;2.60;;;;;;;;;;7396556;19;19998;-72
2023/01/02 12:14:02;;;;;;;7.07;2.70;;;;;;;;;;7395607;19;20015;-71
2023/01/02 12:16:40;;;;;;;11.25;2.60;;;;;;;;;;7388980;19;20180;-72
2023/01/02 12:19:34;;;;;;;8.30;2.50;;;;;;;;;;7397903;19;20095;-71
2023/01/02 12:22:29;;;;;;;14.98;2.80;;;;;;;;;;7394108;19;20014;-71
2023/01/02 12:25:15;;;;;;;10.55;2.38;;;;;;;;;;7394773;19;20378;-70
2023/01/02 12:27:55;;;;;;;7.57;2.65;;;;;;;;;;7395024;19;19999;-73
2023/01/02 12:30:21;;;;;;;8.83;2.90;;;;;;;;;;7396892;19;20002;-71
2023/01/02 12:32:58;;;;;;;7.72;2.78;;;;;;;;;;7396667;19;20009;-72
2023/01/02 12:36:01;;;;;;;5.30;2.42;;;;;;;;;;7393875;19;20019;-71
2023/01/02 12:38:47;;;;;;;6.22;2.80;;;;;;;;;;7395933;19;20026;-71
2023/01/02 12:41:25;;;;;;;12.02;2.80;;;;;;;;;;7384453;19;20366;-72
2023/01/02 12:44:19;;;;;;;10.48;2.80;;;;;;;;;;7390909;19;20520;-73
2023/01/02 12:47:06;;;;;;;10.48;2.70;;;;;;;;;;7390953;19;20441;-71
2023/01/02 12:49:54;;;;;;;10.55;3.08;;;;;;;;;;7393558;19;20332;-71
2023/01/02 12:52:35;;;;;;;9.00;3.28;;;;;;;;;;7394670;19;20544;-71
2023/01/02 12:55:26;;;;;;;9.32;3.22;;;;;;;;;;7395280;19;20006;-72
2023/01/02 12:57:51;;;;;;;;;;;;;;;;;;7393131;19;19990;-71
2023/01/02 13:00:25;;;;;;;10.80;2.88;;;;;;;;;;7396282;19;20014;-72
2023/01/02 13:03:28;;;;;;;10.93;3.58;;;;;;;;;;7394357;19;20505;-72
2023/01/02 13:06:15;;;;;;;7.75;2.80;;;;;;;;;;7391753;19;20018;-73
2023/01/02 13:08:50;;;;;;;8.95;2.88;;;;;;;;;;7392912;19;19998;-71
2023/01/02 13:11:22;;;;;;;6.63;2.80;;;;;;;;;;7397504;19;19999;-72
2023/01/02 13:13:48;;;;;;;6.10;2.72;;;;;;;;;;7389252;19;20014;-71
2023/01/02 13:16:15;;;;;;;10.57;2.72;;;;;;;;;;7395554;19;20138;-71
2023/01/02 13:18:50;;;;;;;11.13;3.10;;;;;;;;;;7395229;19;20011;-71
2023/01/02 13:21:32;;;;;;;10.50;3.13;;;;;;;;;;7390893;19;20062;-72
2023/01/02 13:23:59;;;;;;;8.63;3.22;;;;;;;;;;7391561;19;20002;-72
2023/01/02 13:26:27;;;;;;;11.10;3.22;;;;;;;;;;7395370;19;19999;-70
2023/01/02 13:29:08;;;;;;;10.45;3.60;;;;;;;;;;7393916;19;20011;-70
2023/01/02 13:31:38;;;;;;;11.00;3.53;;;;;;;;;;7394915;19;19991;-71
2023/01/02 13:34:11;;;;;;;15.93;2.83;;;;;;;;;;7392923;19;20003;-72
2023/01/02 13:36:41;;;;;;;7.88;2.97;;;;;;;;;;7393748;19;20074;-71
2023/01/02 13:39:21;;;;;;;7.20;2.67;;;;;;;;;;7395845;19;20011;-72
2023/01/02 13:44:39;;;;;;;9.80;2.60;;;;;;;;;;7392311;19;20035;-71
2023/01/02 13:47:13;;;;;;;6.38;2.90;;;;;;;;;;7393413;19;19995;-72
2023/01/02 13:49:39;;;;;;;8.45;2.72;;;;;;;;;;7392947;19;19998;-71
2023/01/02 13:52:05;;;;;;;6.35;2.58;;;;;;;;;;7391807;19;20078;-73
2023/01/02 13:54:35;;;;;;;8.40;3.40;;;;;;;;;;7389381;19;20003;-70
2023/01/02 13:57:27;;;;;;;7.95;3.03;;;;;;;;;;7393854;19;20002;-70
2023/01/02 14:00:24;;;;;;;11.32;2.85;;;;;;;;;;7387966;19;20089;-71
2023/01/02 14:03:21;;;;;;;8.38;3.30;;;;;;;;;;7393407;19;20093;-71
2023/01/02 14:06:00;;;;;;;10.90;2.85;;;;;;;;;;7390210;19;19994;-70
2023/01/02 14:08:28;;;;;;;11.40;2.95;;;;;;;;;;7394055;19;20002;-70
2023/01/02 14:10:59;;;;;;;12.07;3.40;;;;;;;;;;7392770;19;20018;-71
2023/01/02 14:13:39;;;;;;;11.45;2.75;;;;;;;;;;7392273;19;19994;-71
2023/01/02 14:16:10;;;;;;;7.85;2.90;;;;;;;;;;7391404;19;20058;-70
2023/01/02 14:18:36;;;;;;;6.82;2.75;;;;;;;;;;7392059;19;19999;-72
2023/01/02 14:21:01;;;;;;;8.57;3.05;;;;;;;;;;7389319;19;19998;-71
2023/01/02 14:23:31;;;;;;;12.23;2.83;;;;;;;;;;7391999;19;20019;-72
2023/01/02 14:25:57;;;;;;;7.15;2.90;;;;;;;;;;7388833;19;20002;-70
2023/01/02 14:28:26;;;;;;;10.32;2.85;;;;;;;;;;7392155;19;20008;-72
2023/01/02 14:30:53;;;;;;;11.13;3.05;;;;;;;;;;7390537;19;20070;-71
2023/01/02 14:33:34;;;;;;;6.45;3.22;;;;;;;;;;7391089;19;20110;-71
2023/01/02 14:36:10;;;;;;;6.32;2.78;;;;;;;;;;7389330;19;20322;-72
2023/01/02 14:38:49;;;;;;;8.60;2.95;;;;;;;;;;7390760;19;19998;-70
2023/01/02 14:44:32;;;;;;;9.65;3.58;;;;;;;;;;7390221;19;20023;-70
2023/01/02 14:46:58;;;;;;;9.57;3.08;;;;;;;;;;7392594;19;20384;-69
2023/01/02 14:49:25;;;;;;;10.98;4.25;;;;;;;;;;7389642;19;19998;-72
2023/01/02 14:51:59;;;;;;;10.48;3.13;;;;;;;;;;7390821;19;20382;-70
2023/01/02 14:54:31;;;;;;;8.27;3.45;;;;;;;;;;7387252;19;20099;-70
2023/01/02 14:57:01;;;;;;;10.15;3.30;;;;;;;;;;7392415;19;20376;-70
2023/01/02 14:59:37;;;;;;;8.70;3.10;;;;;;;;;;7389033;19;20515;-71
2023/01/02 15:02:11;;;;;;;9.00;3.78;;;;;;;;;;7388613;19;20515;-70
2023/01/02 15:04:43;;;;;;;12.05;3.60;;;;;;;;;;7386899;19;20479;-70
2023/01/02 15:07:28;;;;;;;8.30;3.10;;;;;;;;;;7388890;19;20023;-71